Seven Oaks, California
Current Conditions -  °F | °C
As of 7:55 AM on Thursday 23 Oct 2014 (Local Time) from KL35 Reporting Station
Clear Clear  
Wind Chill: 34°   Ceiling: Unl
Heat Index: 34°   Visibility: 10mi
Dew Point: 18°   Wind: 0mph
Humidity: 52%   Direction: NA
Pressure: 30.31"   Gusts: NA
Location:  34.1811°N, 116.928°W
Report Text: KL35 231455Z AUTO 00000KT 10SM CLR 01/M08 A3031 RMK AO2
Loading
Personal Weather Stations






























Interactive Weather Map
Tropical Storm Tracking
New forecast layout! Learn more

10-Day Weather Forecast

Advertisements
Track Severe Weather on mobile